createdAt,value
2022-12-23T00:00:42.788Z,325.83
2022-12-23T00:03:06.891Z,141.90
2022-12-23T00:05:37.530Z,177.55
2022-12-23T00:08:01.667Z,182.57
2022-12-23T00:10:25.259Z,406.33
2022-12-23T00:13:07.885Z,179.15
2022-12-23T00:15:31.548Z,278.10
2022-12-23T00:17:55.193Z,399.23
2022-12-23T00:20:18.923Z,220.33
2022-12-23T00:22:57.061Z,195.10
2022-12-23T00:25:40.145Z,124.23
2022-12-23T00:28:06.344Z,130.53
2022-12-23T00:30:30.380Z,136.15
2022-12-23T00:32:54.046Z,178.43
2022-12-23T00:35:17.920Z,132.63
2022-12-23T00:37:41.604Z,218.95
2022-12-23T00:40:23.516Z,259.47
2022-12-23T00:42:56.275Z,249.68
2022-12-23T00:45:21.833Z,156.13
2022-12-23T00:48:03.850Z,171.87
2022-12-23T00:50:28.227Z,172.57
2022-12-23T00:52:51.854Z,178.90
2022-12-23T00:55:15.619Z,193.90
2022-12-23T00:57:39.230Z,169.80
2022-12-23T01:00:02.898Z,152.97
2022-12-23T01:02:45.228Z,197.27
2022-12-23T01:05:29.923Z,155.60
2022-12-23T01:07:53.652Z,252.20
2022-12-23T01:10:17.427Z,277.83
2022-12-23T01:12:41.146Z,588.25
2022-12-23T01:15:05.123Z,363.13
2022-12-23T01:17:30.139Z,230.15
2022-12-23T01:19:53.781Z,268.45
2022-12-23T01:22:17.477Z,222.95
2022-12-23T01:24:41.098Z,125.43
2022-12-23T01:27:04.891Z,201.80
2022-12-23T01:29:29.873Z,297.00
2022-12-23T01:31:53.628Z,226.03
2022-12-23T01:34:18.939Z,142.33
2022-12-23T01:36:42.640Z,174.53
2022-12-23T01:39:06.341Z,229.33
2022-12-23T01:41:50.306Z,146.85
2022-12-23T01:45:06.526Z,203.43
2022-12-23T01:47:39.037Z,177.93
2022-12-23T01:50:11.379Z,219.17
2022-12-23T01:52:42.390Z,217.68
2022-12-23T01:55:07.029Z,371.70
2022-12-23T01:57:31.172Z,362.30
2022-12-23T02:00:12.626Z,219.93
2022-12-23T02:02:55.921Z,554.83
2022-12-23T02:05:21.211Z,161.35
2022-12-23T02:08:02.606Z,154.63
2022-12-23T02:10:33.362Z,244.13
2022-12-23T02:13:03.340Z,386.70
2022-12-23T02:15:53.543Z,242.55
2022-12-23T02:18:50.657Z,652.00
2022-12-23T02:21:33.840Z,338.50
2022-12-23T02:24:47.110Z,534.73
2022-12-23T02:27:16.751Z,102.85
2022-12-23T02:30:34.057Z,271.00
2022-12-23T02:33:29.926Z,787.25
2022-12-23T02:36:19.086Z,233.65
2022-12-23T02:39:01.259Z,282.52
2022-12-23T02:41:34.659Z,637.83
2022-12-23T02:44:03.767Z,601.17
2022-12-23T02:46:34.668Z,452.33
2022-12-23T02:49:03.194Z,608.15
2022-12-23T02:51:33.285Z,131.55
2022-12-23T02:54:00.975Z,641.83
2022-12-23T02:56:27.119Z,227.48
2022-12-23T02:58:57.667Z,436.10
2022-12-23T03:01:22.323Z,434.13
2022-12-23T03:03:48.963Z,105.22
2022-12-23T03:06:22.030Z,134.82
2022-12-23T03:08:46.673Z,188.98
2022-12-23T03:11:14.224Z,176.20
2022-12-23T03:14:04.810Z,153.00
2022-12-23T03:16:37.879Z,158.63
2022-12-23T03:19:17.651Z,187.05
2022-12-23T03:21:47.970Z,133.73
2022-12-23T03:24:23.360Z,98.20
2022-12-23T03:26:55.863Z,205.65
2022-12-23T03:29:27.426Z,509.80
2022-12-23T03:31:52.142Z,252.40
2022-12-23T03:34:22.861Z,114.97
2022-12-23T03:36:53.026Z,398.75
2022-12-23T03:39:22.264Z,294.35
2022-12-23T03:41:52.598Z,765.72
2022-12-23T03:44:22.233Z,103.78
2022-12-23T03:46:51.794Z,283.73
2022-12-23T03:49:22.133Z,390.35
2022-12-23T03:51:54.015Z,441.50
2022-12-23T03:54:25.424Z,409.42
2022-12-23T03:56:55.413Z,319.02
2022-12-23T03:59:23.293Z,142.10
2022-12-23T04:01:58.585Z,280.13
2022-12-23T04:04:29.374Z,274.95
2022-12-23T04:06:58.917Z,523.13
2022-12-23T04:09:24.607Z,416.02
2022-12-23T04:11:49.296Z,753.13
2022-12-23T04:14:18.206Z,499.90
2022-12-23T04:16:42.186Z,422.17
2022-12-23T04:19:05.841Z,444.77
2022-12-23T04:21:30.896Z,406.52
2022-12-23T04:23:54.513Z,423.77
2022-12-23T04:26:18.180Z,777.63
2022-12-23T04:28:41.872Z,409.40
2022-12-23T04:31:05.974Z,391.92
2022-12-23T04:33:29.682Z,460.50
2022-12-23T04:35:53.362Z,307.45
2022-12-23T04:38:18.420Z,661.97
2022-12-23T04:40:42.084Z,309.10
2022-12-23T04:43:05.728Z,237.27
2022-12-23T04:45:29.378Z,389.38
2022-12-23T04:47:54.492Z,487.75
2022-12-23T04:50:18.764Z,375.17
2022-12-23T04:52:42.561Z,426.40
2022-12-23T04:55:09.009Z,481.02
2022-12-23T04:57:32.643Z,334.50
2022-12-23T04:59:56.298Z,467.38
2022-12-23T05:02:19.993Z,318.85
2022-12-23T05:04:43.999Z,369.23
2022-12-23T05:07:08.543Z,589.20
2022-12-23T05:09:32.302Z,239.05
2022-12-23T05:11:57.357Z,406.52
2022-12-23T05:14:21.000Z,727.08
2022-12-23T05:16:44.765Z,267.88
2022-12-23T05:19:08.894Z,533.65
2022-12-23T05:21:32.687Z,742.45
2022-12-23T05:23:57.006Z,779.00
2022-12-23T05:26:20.842Z,516.60
2022-12-23T05:28:46.193Z,642.65
2022-12-23T05:31:10.320Z,313.45
2022-12-23T05:33:35.318Z,679.38
2022-12-23T05:35:59.451Z,818.38
2022-12-23T05:38:23.202Z,357.85
2022-12-23T05:40:46.977Z,230.10
2022-12-23T05:43:10.729Z,365.73
2022-12-23T05:45:39.038Z,268.00
2022-12-23T05:48:02.724Z,434.88
2022-12-23T05:50:26.480Z,605.75
2022-12-23T05:52:50.418Z,339.48
2022-12-23T05:55:14.174Z,218.43
2022-12-23T05:57:37.857Z,372.27
2022-12-23T06:00:01.502Z,399.27
2022-12-23T06:02:26.765Z,231.50
2022-12-23T06:04:50.599Z,245.57
2022-12-23T06:07:14.251Z,438.48
2022-12-23T06:09:37.892Z,243.70
2022-12-23T06:12:01.742Z,204.75
2022-12-23T06:14:29.057Z,532.13
2022-12-23T06:16:53.240Z,398.65
2022-12-23T06:19:18.743Z,508.90
2022-12-23T06:21:42.417Z,494.88
2022-12-23T06:24:07.129Z,787.00
2022-12-23T06:26:30.829Z,824.50
2022-12-23T06:28:54.602Z,855.15
2022-12-23T06:31:18.535Z,426.67
2022-12-23T06:33:42.233Z,587.70
2022-12-23T06:36:09.506Z,549.83
2022-12-23T06:38:33.154Z,649.75
2022-12-23T06:40:56.835Z,1027.05
2022-12-23T06:43:20.632Z,523.78
2022-12-23T06:45:48.304Z,318.88
2022-12-23T06:48:11.948Z,654.15
2022-12-23T06:50:35.588Z,483.55
2022-12-23T06:53:00.653Z,411.10
2022-12-23T06:55:24.336Z,401.83
2022-12-23T06:57:47.956Z,440.23
2022-12-23T07:00:13.509Z,349.15
2022-12-23T07:02:37.277Z,310.70
2022-12-23T07:05:00.996Z,265.52
2022-12-23T07:07:24.591Z,454.20
2022-12-23T07:09:49.634Z,299.20
2022-12-23T07:12:13.303Z,616.80
2022-12-23T07:14:36.883Z,569.38
2022-12-23T07:17:00.556Z,481.02
2022-12-23T07:19:24.150Z,308.85
2022-12-23T07:21:47.782Z,255.00
2022-12-23T07:24:11.974Z,720.53
2022-12-23T07:26:37.094Z,278.58
2022-12-23T07:29:00.791Z,828.58
2022-12-23T07:31:24.711Z,582.33
2022-12-23T07:33:48.420Z,624.67
2022-12-23T07:36:12.230Z,678.78
2022-12-23T07:38:35.899Z,683.92
2022-12-23T07:40:59.635Z,687.90
2022-12-23T07:43:24.721Z,545.10
2022-12-23T07:45:52.542Z,393.65
2022-12-23T07:48:19.443Z,580.83
2022-12-23T07:50:43.104Z,449.10
2022-12-23T07:53:06.892Z,417.27
2022-12-23T07:55:30.559Z,264.95
2022-12-23T07:57:54.888Z,342.55
2022-12-23T08:00:21.989Z,554.78
2022-12-23T08:02:46.017Z,587.40
2022-12-23T08:05:11.071Z,546.72
2022-12-23T08:07:34.950Z,510.38
2022-12-23T08:09:58.552Z,532.35
2022-12-23T08:12:22.326Z,544.35
2022-12-23T08:14:45.996Z,435.98
2022-12-23T08:17:11.175Z,492.55
2022-12-23T08:19:34.900Z,696.17
2022-12-23T08:21:58.656Z,456.88
2022-12-23T08:24:22.329Z,610.22
2022-12-23T08:26:46.113Z,713.08
2022-12-23T08:29:09.682Z,502.33
2022-12-23T08:31:33.588Z,591.28
2022-12-23T08:34:00.386Z,646.83
2022-12-23T08:36:26.658Z,335.33
2022-12-23T08:38:50.694Z,585.13
2022-12-23T08:41:17.929Z,540.72
2022-12-23T08:43:42.156Z,630.35
2022-12-23T08:46:07.087Z,459.77
2022-12-23T08:48:30.885Z,542.83
2022-12-23T08:50:56.016Z,517.90
2022-12-23T08:53:19.665Z,588.00
2022-12-23T08:55:48.305Z,556.80
2022-12-23T08:58:14.278Z,369.98
2022-12-23T09:00:39.024Z,382.90
2022-12-23T09:03:03.074Z,333.10
2022-12-23T09:05:27.150Z,362.10
2022-12-23T09:07:52.213Z,342.75
2022-12-23T09:10:16.344Z,218.90
2022-12-23T09:12:39.969Z,255.27
2022-12-23T09:15:03.664Z,245.25
2022-12-23T09:17:28.168Z,274.50
2022-12-23T09:19:53.126Z,245.43
2022-12-23T09:22:16.975Z,302.10
2022-12-23T09:24:42.114Z,177.90
2022-12-23T09:27:05.805Z,287.92
2022-12-23T09:29:29.511Z,198.57
2022-12-23T09:31:53.199Z,228.52
2022-12-23T09:34:16.859Z,252.18
2022-12-23T09:36:40.656Z,204.18
2022-12-23T09:39:04.975Z,187.43
2022-12-23T09:41:53.627Z,382.98
2022-12-23T09:44:36.128Z,218.55
2022-12-23T09:47:04.049Z,164.07
2022-12-23T09:49:28.765Z,189.57
2022-12-23T09:52:00.220Z,129.30
2022-12-23T09:54:26.648Z,164.10
2022-12-23T09:56:56.243Z,154.18
2022-12-23T09:59:37.484Z,98.25
2022-12-23T10:02:20.411Z,124.55
2022-12-23T10:04:55.339Z,147.82
2022-12-23T10:07:32.969Z,121.65
2022-12-23T10:09:58.283Z,123.85
2022-12-23T10:12:39.125Z,154.25
2022-12-23T10:15:12.766Z,143.15
2022-12-23T10:17:41.628Z,123.32
2022-12-23T10:20:07.773Z,122.93
2022-12-23T10:22:39.284Z,125.20
2022-12-23T10:25:05.751Z,114.97
2022-12-23T10:27:34.159Z,121.07
2022-12-23T10:30:19.921Z,114.57
2022-12-23T10:33:06.318Z,98.57
2022-12-23T10:35:47.460Z,119.70
2022-12-23T10:38:27.770Z,101.15
2022-12-23T10:41:03.904Z,116.32
2022-12-23T10:43:46.257Z,100.55
2022-12-23T10:46:23.763Z,106.88
2022-12-23T10:49:01.578Z,105.60
2022-12-23T10:51:30.593Z,103.68
2022-12-23T10:53:57.857Z,114.97
2022-12-23T10:56:23.074Z,94.85
2022-12-23T10:58:54.320Z,115.65
2022-12-23T11:01:26.462Z,83.82
2022-12-23T11:04:03.455Z,77.40
2022-12-23T11:06:34.875Z,68.28
2022-12-23T11:09:03.892Z,70.40
2022-12-23T11:11:54.816Z,70.07
2022-12-23T11:14:35.673Z,76.93
2022-12-23T11:17:00.380Z,78.28
2022-12-23T11:19:24.594Z,82.50
2022-12-23T11:21:56.404Z,82.60
2022-12-23T11:24:22.339Z,85.85
2022-12-23T11:26:49.209Z,77.20
2022-12-23T11:29:18.297Z,75.47
2022-12-23T11:31:45.517Z,56.40
2022-12-23T11:34:17.447Z,65.95
2022-12-23T11:36:41.204Z,91.13
2022-12-23T11:39:09.260Z,83.10
2022-12-23T11:41:39.503Z,83.60
2022-12-23T11:44:08.816Z,68.93
2022-12-23T11:46:35.956Z,91.00
2022-12-23T11:49:18.873Z,95.10
2022-12-23T11:51:42.643Z,81.40
2022-12-23T11:54:06.435Z,79.20
2022-12-23T11:56:36.535Z,74.97
2022-12-23T11:59:07.688Z,81.72
2022-12-23T12:01:31.441Z,84.05
2022-12-23T12:04:00.247Z,103.80
2022-12-23T12:06:25.588Z,106.85
2022-12-23T12:08:52.441Z,85.80
2022-12-23T12:11:20.469Z,100.38
2022-12-23T12:13:46.726Z,77.03
2022-12-23T12:16:41.174Z,101.18
2022-12-23T12:19:12.073Z,90.93
2022-12-23T12:21:40.317Z,84.55
2022-12-23T12:24:18.283Z,90.20
2022-12-23T12:26:44.101Z,68.00
2022-12-23T12:29:16.972Z,83.45
2022-12-23T12:31:45.273Z,87.60
2022-12-23T12:34:28.534Z,88.30
2022-12-23T12:37:01.535Z,66.20
2022-12-23T12:39:31.387Z,67.68
2022-12-23T12:42:05.279Z,74.78
2022-12-23T12:44:39.348Z,72.32
2022-12-23T12:47:28.565Z,74.55
2022-12-23T12:50:02.217Z,75.47
2022-12-23T12:52:29.433Z,73.72
2022-12-23T12:54:59.607Z,80.07
2022-12-23T12:57:25.585Z,64.82
2022-12-23T12:59:52.855Z,69.50
2022-12-23T13:02:47.876Z,84.00
2022-12-23T13:05:34.035Z,64.65
2022-12-23T13:08:20.420Z,74.32
2022-12-23T13:10:48.675Z,74.38
2022-12-23T13:13:30.420Z,68.38
2022-12-23T13:16:02.692Z,63.20
2022-12-23T13:18:42.907Z,71.60
2022-12-23T13:21:15.223Z,70.22
2022-12-23T13:23:50.632Z,68.18
2022-12-23T13:26:28.531Z,65.80
2022-12-23T13:29:05.011Z,76.85
2022-12-23T13:31:42.336Z,78.95
2022-12-23T13:34:22.854Z,74.68
2022-12-23T13:36:55.301Z,77.00
2022-12-23T13:39:36.847Z,80.20
2022-12-23T13:42:05.998Z,77.53
2022-12-23T13:44:32.055Z,108.65
2022-12-23T13:47:08.459Z,90.25
2022-12-23T13:49:47.131Z,67.93
2022-12-23T13:52:16.314Z,75.43
2022-12-23T13:54:53.923Z,80.60
2022-12-23T13:57:35.764Z,110.07
2022-12-23T14:00:06.645Z,79.05
2022-12-23T14:02:52.288Z,94.95
2022-12-23T14:05:35.982Z,110.40
2022-12-23T14:08:02.986Z,102.68
2022-12-23T14:10:28.943Z,82.20
2022-12-23T14:12:58.791Z,89.88
2022-12-23T14:15:47.647Z,125.55
2022-12-23T14:18:39.671Z,162.95
2022-12-23T14:21:14.377Z,171.10
2022-12-23T14:24:02.476Z,171.10
2022-12-23T14:26:52.195Z,94.13
2022-12-23T14:29:46.746Z,176.57
2022-12-23T14:32:22.827Z,102.07
2022-12-23T14:35:17.378Z,192.98
2022-12-23T14:37:42.034Z,105.65
2022-12-23T14:41:06.770Z,124.50
2022-12-23T14:43:55.717Z,161.77
2022-12-23T14:46:59.409Z,78.07
2022-12-23T14:49:41.248Z,80.35
2022-12-23T14:53:00.383Z,96.38
2022-12-23T14:55:44.871Z,91.10
2022-12-23T14:58:25.102Z,97.15
2022-12-23T15:00:56.428Z,92.60
2022-12-23T15:03:21.861Z,96.28
2022-12-23T15:05:45.933Z,100.93
2022-12-23T15:08:29.904Z,89.97
2022-12-23T15:10:53.724Z,85.05
2022-12-23T15:13:20.763Z,78.47
2022-12-23T15:16:00.883Z,92.05
2022-12-23T15:18:26.830Z,98.43
2022-12-23T15:21:01.235Z,113.80
2022-12-23T15:23:24.901Z,111.70
2022-12-23T15:25:50.371Z,93.43
2022-12-23T15:28:20.982Z,111.50
2022-12-23T15:30:53.037Z,103.50
2022-12-23T15:34:00.803Z,130.20
2022-12-23T15:36:07.895Z,171.75
2022-12-23T15:38:36.374Z,206.05
2022-12-23T15:41:03.099Z,103.07
2022-12-23T15:43:26.785Z,149.40
2022-12-23T15:45:52.447Z,104.60
2022-12-23T15:48:27.382Z,176.90
2022-12-23T15:50:55.340Z,171.27
2022-12-23T15:53:20.443Z,149.10
2022-12-23T15:55:44.233Z,123.57
2022-12-23T15:58:07.895Z,168.05
2022-12-23T16:00:38.057Z,200.38
2022-12-23T16:03:05.612Z,174.77
2022-12-23T16:05:35.922Z,332.08
2022-12-23T16:08:26.564Z,156.45
2022-12-23T16:11:07.576Z,185.57
2022-12-23T16:13:31.270Z,100.88
2022-12-23T16:15:55.158Z,103.65
2022-12-23T16:18:25.676Z,223.07
2022-12-23T16:20:53.648Z,141.32
2022-12-23T16:23:18.829Z,170.52
2022-12-23T16:25:50.842Z,178.05
2022-12-23T16:28:23.013Z,150.15
2022-12-23T16:30:49.781Z,245.90
2022-12-23T16:33:36.505Z,201.93
2022-12-23T16:36:20.929Z,247.80
2022-12-23T16:38:45.228Z,297.13
2022-12-23T16:41:08.794Z,132.27
2022-12-23T16:43:32.803Z,210.10
2022-12-23T16:45:59.054Z,169.30
2022-12-23T16:48:31.096Z,122.70
2022-12-23T16:50:55.658Z,161.55
2022-12-23T16:53:19.257Z,145.70
2022-12-23T16:55:50.231Z,171.20
2022-12-23T16:58:16.292Z,135.95
2022-12-23T17:00:40.871Z,308.50
2022-12-23T17:03:05.855Z,340.00
2022-12-23T17:05:30.831Z,194.20
2022-12-23T17:07:54.637Z,196.48
2022-12-23T17:10:19.561Z,167.18
2022-12-23T17:12:44.228Z,226.07
2022-12-23T17:15:09.697Z,186.88
2022-12-23T17:17:33.763Z,377.08
2022-12-23T17:19:57.715Z,202.05
2022-12-23T17:22:22.818Z,158.50
2022-12-23T17:24:46.445Z,180.80
2022-12-23T17:27:16.403Z,150.52
2022-12-23T17:29:40.110Z,278.63
2022-12-23T17:32:03.746Z,220.90
2022-12-23T17:34:27.471Z,165.02
2022-12-23T17:36:51.641Z,190.85
2022-12-23T17:39:18.184Z,170.30
2022-12-23T17:41:42.859Z,184.55
2022-12-23T17:44:07.368Z,161.13
2022-12-23T17:46:31.179Z,169.13
2022-12-23T17:48:57.129Z,183.68
2022-12-23T17:51:23.449Z,353.75
2022-12-23T17:53:53.332Z,162.77
2022-12-23T17:56:23.486Z,165.18
2022-12-23T17:58:50.819Z,168.77
2022-12-23T18:01:19.572Z,183.27
2022-12-23T18:03:43.313Z,178.80
2022-12-23T18:06:12.328Z,200.82
2022-12-23T18:08:35.915Z,228.35
2022-12-23T18:11:00.853Z,218.15
2022-12-23T18:13:25.901Z,273.13
2022-12-23T18:15:49.594Z,254.85
2022-12-23T18:18:20.497Z,200.20
2022-12-23T18:20:53.692Z,205.77
2022-12-23T18:23:23.645Z,190.73
2022-12-23T18:25:47.360Z,176.57
2022-12-23T18:28:12.517Z,122.40
2022-12-23T18:30:38.114Z,164.52
2022-12-23T18:33:01.698Z,146.23
2022-12-23T18:35:29.984Z,154.93
2022-12-23T18:37:54.307Z,137.52
2022-12-23T18:40:18.237Z,160.65
2022-12-23T18:42:41.874Z,176.63
2022-12-23T18:45:22.360Z,153.70
2022-12-23T18:47:47.408Z,183.05
2022-12-23T18:50:12.417Z,171.02
2022-12-23T18:52:36.084Z,155.13
2022-12-23T18:54:59.650Z,207.48
2022-12-23T18:57:23.350Z,130.57
2022-12-23T18:59:46.964Z,179.02
2022-12-23T19:02:15.334Z,260.10
2022-12-23T19:04:40.359Z,257.35
2022-12-23T19:07:04.056Z,260.85
2022-12-23T19:09:28.123Z,239.38
2022-12-23T19:11:54.000Z,261.63
2022-12-23T19:14:17.866Z,230.70
2022-12-23T19:16:46.165Z,211.30
2022-12-23T19:19:15.224Z,268.05
2022-12-23T19:21:40.410Z,187.70
2022-12-23T19:24:04.953Z,220.45
2022-12-23T19:26:28.697Z,230.85
2022-12-23T19:28:52.489Z,338.05
2022-12-23T19:31:18.310Z,165.73
2022-12-23T19:33:44.084Z,175.90
2022-12-23T19:36:11.819Z,196.10
2022-12-23T19:38:37.039Z,202.95
2022-12-23T19:41:00.753Z,198.15
2022-12-23T19:43:24.424Z,209.85
2022-12-23T19:45:57.919Z,182.20
2022-12-23T19:48:21.648Z,191.45
2022-12-23T19:50:45.297Z,184.00
2022-12-23T19:53:08.921Z,175.40
2022-12-23T19:55:33.933Z,176.48
2022-12-23T19:57:57.602Z,176.35
2022-12-23T20:00:21.318Z,176.70
2022-12-23T20:02:44.995Z,192.75
2022-12-23T20:05:10.538Z,181.18
2022-12-23T20:07:36.354Z,174.43
2022-12-23T20:10:00.012Z,170.93
2022-12-23T20:12:26.489Z,193.88
2022-12-23T20:14:50.367Z,187.57
2022-12-23T20:17:14.140Z,203.30
2022-12-23T20:19:45.482Z,188.13
2022-12-23T20:22:09.701Z,191.43
2022-12-23T20:24:35.559Z,190.70
2022-12-23T20:26:59.377Z,188.43
2022-12-23T20:29:24.453Z,212.75
2022-12-23T20:31:48.204Z,233.57
2022-12-23T20:34:17.705Z,217.85
2022-12-23T20:36:41.491Z,200.18
2022-12-23T20:39:06.367Z,220.52
2022-12-23T20:41:31.958Z,192.65
2022-12-23T20:44:32.389Z,247.65
2022-12-23T20:46:41.364Z,190.27
2022-12-23T20:49:05.347Z,196.30
2022-12-23T20:51:29.113Z,200.55
2022-12-23T20:53:54.250Z,222.73
2022-12-23T20:56:20.359Z,178.55
2022-12-23T20:58:57.819Z,174.23
2022-12-23T21:01:22.267Z,193.70
2022-12-23T21:03:47.428Z,156.23
2022-12-23T21:06:11.428Z,201.13
2022-12-23T21:08:35.175Z,186.57
2022-12-23T21:10:59.450Z,197.82
2022-12-23T21:13:23.122Z,206.18
2022-12-23T21:15:46.813Z,193.55
2022-12-23T21:18:10.411Z,233.88
2022-12-23T21:20:38.043Z,190.50
2022-12-23T21:23:01.653Z,201.05
2022-12-23T21:25:25.269Z,197.82
2022-12-23T21:27:48.947Z,194.32
2022-12-23T21:30:13.503Z,186.13
2022-12-23T21:32:37.132Z,225.20
2022-12-23T21:35:01.735Z,192.60
2022-12-23T21:37:27.414Z,215.77
2022-12-23T21:39:51.095Z,210.40
2022-12-23T21:42:14.732Z,201.50
2022-12-23T21:44:38.417Z,174.98
2022-12-23T21:47:02.061Z,169.40
2022-12-23T21:49:25.791Z,178.07
2022-12-23T21:51:49.621Z,158.48
2022-12-23T21:54:14.720Z,134.50
2022-12-23T21:56:38.607Z,136.52
2022-12-23T21:59:06.137Z,157.75
2022-12-23T22:01:30.581Z,142.80
2022-12-23T22:03:55.839Z,141.93
2022-12-23T22:06:21.824Z,139.85
2022-12-23T22:08:45.659Z,146.43
2022-12-23T22:11:13.372Z,122.55
2022-12-23T22:13:37.443Z,128.73
2022-12-23T22:16:01.189Z,107.32
2022-12-23T22:18:24.878Z,104.28
2022-12-23T22:20:48.489Z,120.10
2022-12-23T22:23:12.320Z,104.68
2022-12-23T22:25:36.104Z,109.22
2022-12-23T22:28:01.337Z,106.88
2022-12-23T22:30:24.937Z,94.28
2022-12-23T22:32:48.603Z,99.20
2022-12-23T22:35:12.488Z,86.97
2022-12-23T22:37:36.133Z,91.50
2022-12-23T22:39:59.803Z,113.70
2022-12-23T22:42:23.448Z,100.13
2022-12-23T22:44:48.502Z,95.05
2022-12-23T22:47:12.298Z,104.65
2022-12-23T22:49:35.939Z,96.35
2022-12-23T22:51:59.638Z,103.03
2022-12-23T22:54:23.256Z,97.80
2022-12-23T22:56:46.987Z,99.60
2022-12-23T22:59:20.409Z,102.93
2022-12-23T23:01:45.646Z,82.13
2022-12-23T23:04:10.563Z,92.57
2022-12-23T23:06:38.115Z,93.85
2022-12-23T23:09:02.517Z,93.10
2022-12-23T23:11:28.108Z,88.68
2022-12-23T23:13:52.142Z,80.20
2022-12-23T23:16:15.961Z,88.65
2022-12-23T23:18:41.037Z,76.30
2022-12-23T23:21:04.903Z,84.25
2022-12-23T23:23:28.727Z,86.90
2022-12-23T23:25:52.416Z,84.90
2022-12-23T23:28:16.575Z,91.35
2022-12-23T23:30:41.069Z,80.53
2022-12-23T23:33:04.775Z,82.97
2022-12-23T23:35:29.771Z,77.63
2022-12-23T23:37:53.570Z,63.08
2022-12-23T23:40:17.418Z,92.03
2022-12-23T23:42:40.997Z,62.05
2022-12-23T23:45:05.112Z,70.82
2022-12-23T23:47:34.399Z,61.75
2022-12-23T23:49:58.098Z,55.70
2022-12-23T23:52:23.113Z,65.47
2022-12-23T23:54:46.791Z,54.55
2022-12-23T23:57:10.837Z,58.70
2022-12-23T23:59:34.496Z,66.85
